Cordele, Georgia
Current Conditions -  °F | °C
As of 7:55 AM on Saturday 20 Dec 2014 (Local Time) from KCKF Reporting Station
Drizzle Drizzle  
Wind Chill: 49°   Ceiling: 2500
Heat Index: 49°   Visibility: 5mi
Dew Point: 47°   Wind: 3mph
Humidity: 93%   Direction: 30°NNE
Pressure: 30.19"   Gusts: NA
Location:  31.97°N, 83.78°W
Report Text: KCKF 201255Z AUTO 03003KT 5SM +DZ SCT006 OVC025 10/09 A3019 RMK AO2 T00950085
Loading
Personal Weather Stations






























Interactive Weather Map New forecast layout! Learn more

10-Day Weather Forecast

Advertisements
Track Severe Weather on mobile